Time;durP1;ratioP1;P1;durP2;ratioP2;P2;SDS_P1;SDS_P2;PMS_P1;PMS_P2;Temp;Humidity;BMP_temperature;BMP_pressure;BME280_temperature;BME280_humidity;BME280_pressure;Samples;Min_cycle;Max_cycle;Signal;HPM_P1;HPM_P2
2021/06/24 00:01:35;;;;;;;9.43;3.45;;;16.50;99.90;;;;;;5073243;28;20197;-88
2021/06/24 00:04:01;;;;;;;4.50;3.45;;;16.50;99.90;;;;;;5037189;28;20186;-87
2021/06/24 00:06:27;;;;;;;7.60;3.60;;;16.40;99.90;;;;;;5036983;28;20534;-87
2021/06/24 00:08:52;;;;;;;7.72;3.08;;;16.40;99.90;;;;;;5037074;28;20196;-87
2021/06/24 00:11:18;;;;;;;5.13;2.97;;;16.40;99.90;;;;;;5037107;28;20637;-88
2021/06/24 00:13:44;;;;;;;10.40;3.00;;;16.40;99.90;;;;;;5037041;28;20216;-87
2021/06/24 00:16:10;;;;;;;5.70;3.28;;;16.40;99.90;;;;;;5037118;28;20172;-88
2021/06/24 00:18:37;;;;;;;10.05;3.40;;;16.40;99.90;;;;;;5036934;28;20181;-87
2021/06/24 00:21:04;;;;;;;8.48;3.60;;;16.50;99.90;;;;;;5036838;28;20210;-87
2021/06/24 00:23:30;;;;;;;4.80;3.25;;;16.60;99.90;;;;;;5036872;28;20202;-88
2021/06/24 00:25:56;;;;;;;6.35;2.80;;;16.50;99.90;;;;;;5037044;28;20205;-87
2021/06/24 00:28:26;;;;;;;5.35;3.10;;;16.60;99.90;;;;;;5036794;28;20533;-88
2021/06/24 00:30:52;;;;;;;7.03;3.30;;;16.50;99.90;;;;;;5036977;28;20169;-88
2021/06/24 00:33:20;;;;;;;9.77;3.40;;;16.50;99.90;;;;;;5036420;28;20206;-88
2021/06/24 00:35:46;;;;;;;6.63;3.55;;;16.50;99.90;;;;;;5036789;28;20170;-88
2021/06/24 00:38:12;;;;;;;7.85;2.75;;;16.40;99.90;;;;;;5036904;28;20173;-88
2021/06/24 00:40:39;;;;;;;11.48;3.40;;;16.40;99.90;;;;;;5036802;28;20753;-87
2021/06/24 00:43:08;;;;;;;5.45;3.33;;;16.30;99.90;;;;;;5036577;28;20209;-88
2021/06/24 00:45:35;;;;;;;6.88;3.47;;;16.40;99.90;;;;;;5036857;28;20188;-88
2021/06/24 00:48:02;;;;;;;4.82;3.20;;;16.40;99.90;;;;;;5036382;28;20166;-87
2021/06/24 00:50:28;;;;;;;5.50;2.85;;;16.40;99.90;;;;;;5036479;28;20625;-87
2021/06/24 00:52:54;;;;;;;5.80;3.35;;;16.40;99.90;;;;;;5036298;28;20251;-88
2021/06/24 00:55:39;;;;;;;5.47;2.90;;;16.40;99.90;;;;;;5036382;28;20717;-88
2021/06/24 00:58:26;;;;;;;8.68;3.17;;;16.30;99.90;;;;;;5053828;28;20177;-88
2021/06/24 01:00:55;;;;;;;4.75;3.17;;;16.30;99.90;;;;;;5036174;28;20181;-88
2021/06/24 01:03:21;;;;;;;6.70;3.58;;;16.30;99.90;;;;;;5062646;28;20765;-88
2021/06/24 01:05:48;;;;;;;6.43;3.33;;;16.30;99.90;;;;;;5073227;28;20169;-88
2021/06/24 01:08:15;;;;;;;10.10;2.80;;;16.40;99.90;;;;;;5073035;28;20168;-87
2021/06/24 01:10:47;;;;;;;6.25;3.58;;;16.30;99.90;;;;;;5073122;28;20174;-87
2021/06/24 01:13:14;;;;;;;5.90;3.45;;;16.40;99.90;;;;;;5072906;28;20209;-88
2021/06/24 01:18:23;;;;;;;5.57;3.10;;;16.30;99.90;;;;;;5240423;23;20755;-96
2021/06/24 01:20:48;;;;;;;6.82;3.38;;;16.40;99.90;;;;;;5015548;28;20187;-96
2021/06/24 01:23:14;;;;;;;5.95;3.63;;;16.40;99.90;;;;;;4998354;28;20206;-96
2021/06/24 01:25:40;;;;;;;5.55;3.38;;;16.40;99.90;;;;;;4997820;28;20183;-96
2021/06/24 01:28:10;;;;;;;12.00;3.53;;;16.30;99.90;;;;;;4983764;28;20266;-96
2021/06/24 01:30:38;;;;;;;8.52;3.53;;;16.30;99.90;;;;;;5001805;28;20175;-96
2021/06/24 01:33:06;;;;;;;7.97;3.17;;;16.20;99.90;;;;;;5018548;28;20175;-96
2021/06/24 01:35:33;;;;;;;4.03;3.08;;;16.20;99.90;;;;;;5018481;28;20179;-96
2021/06/24 01:38:08;;;;;;;5.93;3.10;;;16.20;99.90;;;;;;5003315;28;20178;-96
2021/06/24 01:40:35;;;;;;;8.35;3.47;;;16.10;99.90;;;;;;5005857;28;20208;-96
2021/06/24 01:43:02;;;;;;;5.45;3.00;;;16.00;99.90;;;;;;5000894;28;20215;-96
2021/06/24 01:45:28;;;;;;;5.38;3.10;;;16.00;99.90;;;;;;5001855;28;20179;-96
2021/06/24 01:47:54;;;;;;;5.75;3.15;;;15.90;99.90;;;;;;5003278;28;20242;-96
2021/06/24 01:50:20;;;;;;;5.55;3.58;;;15.90;99.90;;;;;;5008054;28;20179;-96
2021/06/24 01:52:47;;;;;;;5.10;3.60;;;15.90;99.90;;;;;;5003067;28;20171;-96
2021/06/24 01:55:14;;;;;;;5.22;3.30;;;15.80;99.90;;;;;;5001084;28;20206;-96
2021/06/24 01:57:40;;;;;;;8.95;3.65;;;15.80;99.90;;;;;;5001746;28;20186;-96
2021/06/24 02:00:13;;;;;;;8.60;3.80;;;15.80;99.90;;;;;;5019056;28;20178;-96
2021/06/24 02:02:40;;;;;;;7.15;3.55;;;15.70;99.90;;;;;;5003108;28;20231;-96
2021/06/24 02:05:08;;;;;;;6.88;3.88;;;15.80;99.90;;;;;;5001781;28;20233;-96
2021/06/24 02:07:38;;;;;;;7.40;3.58;;;15.80;99.90;;;;;;5002314;28;20211;-96
2021/06/24 02:10:05;;;;;;;5.35;3.15;;;15.70;99.90;;;;;;5006055;28;20199;-96
2021/06/24 02:12:30;;;;;;;8.27;3.97;;;15.70;99.90;;;;;;5000923;28;20164;-96
2021/06/24 02:14:56;;;;;;;8.60;3.38;;;15.70;99.90;;;;;;5000449;28;20237;-96
2021/06/24 02:17:22;;;;;;;6.45;3.63;;;15.60;99.90;;;;;;5000567;28;20598;-95
2021/06/24 02:19:48;;;;;;;9.90;3.97;;;15.70;99.90;;;;;;5000165;28;20183;-96
2021/06/24 02:22:16;;;;;;;4.95;3.50;;;15.60;99.90;;;;;;5017872;28;20290;-95
2021/06/24 02:24:42;;;;;;;8.73;4.05;;;15.70;99.90;;;;;;5000529;28;20190;-96
2021/06/24 02:27:07;;;;;;;7.88;4.15;;;15.60;99.90;;;;;;5001243;28;20187;-96
2021/06/24 02:29:33;;;;;;;6.45;3.75;;;15.60;99.90;;;;;;5000283;28;20744;-96
2021/06/24 02:31:59;;;;;;;5.90;3.95;;;15.60;99.90;;;;;;5000505;28;20174;-96
2021/06/24 02:34:25;;;;;;;6.10;4.00;;;15.60;99.90;;;;;;4999854;28;20516;-96
2021/06/24 02:36:50;;;;;;;5.32;3.80;;;15.60;99.90;;;;;;5001265;28;20608;-96
2021/06/24 02:39:16;;;;;;;6.13;3.92;;;15.60;99.90;;;;;;5001585;28;20211;-96
2021/06/24 02:41:42;;;;;;;7.30;3.40;;;15.60;99.90;;;;;;5000785;28;20171;-96
2021/06/24 02:44:10;;;;;;;8.77;3.97;;;15.60;99.90;;;;;;5000358;28;20581;-96
2021/06/24 02:46:36;;;;;;;9.13;3.88;;;15.50;99.90;;;;;;5002399;28;20182;-96
2021/06/24 02:49:02;;;;;;;6.20;4.00;;;15.50;99.90;;;;;;5005665;28;20183;-96
2021/06/24 02:51:30;;;;;;;6.72;4.28;;;15.60;99.90;;;;;;5004339;28;20233;-96
2021/06/24 02:53:56;;;;;;;9.27;3.90;;;15.50;99.90;;;;;;5003062;28;20625;-96
2021/06/24 02:56:23;;;;;;;8.40;4.05;;;15.60;99.90;;;;;;4999905;28;20257;-96
2021/06/24 02:58:49;;;;;;;8.25;4.10;;;15.60;99.90;;;;;;5000083;28;20205;-96
2021/06/24 03:01:15;;;;;;;7.13;4.13;;;15.60;99.90;;;;;;4999715;28;20180;-96
2021/06/24 03:03:42;;;;;;;5.43;3.85;;;15.70;99.90;;;;;;4999636;28;20226;-96
2021/06/24 03:06:08;;;;;;;8.10;4.15;;;15.70;99.90;;;;;;4999839;28;20205;-96
2021/06/24 03:08:34;;;;;;;8.85;4.45;;;15.70;99.90;;;;;;5004509;28;20179;-96
2021/06/24 03:11:00;;;;;;;8.02;4.05;;;15.70;99.90;;;;;;5001549;28;20659;-96
2021/06/24 03:13:26;;;;;;;8.35;4.15;;;15.70;99.90;;;;;;4999422;28;20186;-96
2021/06/24 03:15:52;;;;;;;7.70;4.47;;;15.70;99.90;;;;;;4999506;28;20179;-96
2021/06/24 03:18:17;;;;;;;8.13;3.85;;;15.70;99.90;;;;;;4999032;28;20259;-96
2021/06/24 03:20:43;;;;;;;7.70;4.45;;;15.70;99.90;;;;;;5000899;28;20180;-96
2021/06/24 03:23:10;;;;;;;6.88;4.07;;;15.70;99.90;;;;;;4999968;28;20243;-96
2021/06/24 03:25:37;;;;;;;7.60;4.47;;;15.70;99.90;;;;;;5001247;28;20179;-96
2021/06/24 03:28:04;;;;;;;8.60;4.40;;;15.70;99.90;;;;;;4988731;28;20188;-96
2021/06/24 03:30:29;;;;;;;11.05;5.00;;;15.60;99.90;;;;;;5015592;28;20172;-96
2021/06/24 03:32:55;;;;;;;9.88;4.50;;;15.60;99.90;;;;;;4999138;28;20272;-96
2021/06/24 03:35:21;;;;;;;10.55;4.47;;;15.60;99.90;;;;;;5003416;28;20172;-96
2021/06/24 03:37:47;;;;;;;7.20;4.25;;;15.60;99.90;;;;;;5000191;28;20184;-96
2021/06/24 03:40:17;;;;;;;6.68;4.22;;;15.60;99.90;;;;;;4998897;28;20191;-96
2021/06/24 03:42:47;;;;;;;11.95;4.28;;;15.60;99.90;;;;;;4998578;28;20592;-96
2021/06/24 03:45:14;;;;;;;8.75;4.15;;;15.70;99.90;;;;;;5000470;28;20188;-96
2021/06/24 03:47:41;;;;;;;8.82;4.28;;;15.70;99.90;;;;;;4998369;28;20606;-96
2021/06/24 03:50:07;;;;;;;5.93;4.30;;;15.70;99.90;;;;;;4996096;28;20184;-96
2021/06/24 03:52:33;;;;;;;6.40;4.13;;;15.70;99.90;;;;;;4995632;28;20180;-96
2021/06/24 03:54:59;;;;;;;6.63;4.20;;;15.80;99.90;;;;;;4996731;28;20263;-96
2021/06/24 03:57:25;;;;;;;7.78;4.53;;;15.80;99.90;;;;;;4995549;28;20187;-96
2021/06/24 03:59:53;;;;;;;7.13;4.30;;;15.80;99.90;;;;;;4995644;28;20183;-96
2021/06/24 04:02:21;;;;;;;9.38;4.78;;;15.90;99.90;;;;;;5003691;28;20207;-96
2021/06/24 04:04:54;;;;;;;9.48;4.80;;;15.90;99.90;;;;;;5003301;28;20208;-96
2021/06/24 04:07:20;;;;;;;5.43;4.53;;;15.90;99.90;;;;;;5015550;28;20688;-96
2021/06/24 04:09:45;;;;;;;8.30;4.50;;;15.90;99.90;;;;;;4997606;28;20180;-96
2021/06/24 04:12:11;;;;;;;9.00;5.32;;;15.90;99.90;;;;;;4999162;28;20176;-96
2021/06/24 04:14:37;;;;;;;9.68;4.80;;;16.00;99.90;;;;;;4996186;28;20192;-96
2021/06/24 04:17:03;;;;;;;8.05;4.97;;;16.00;99.90;;;;;;4997580;28;20183;-96
2021/06/24 04:19:29;;;;;;;9.30;5.03;;;16.00;99.90;;;;;;5001076;28;20210;-96
2021/06/24 04:21:55;;;;;;;8.80;5.00;;;16.00;99.90;;;;;;5003952;28;20183;-96
2021/06/24 04:24:20;;;;;;;8.95;4.70;;;16.10;99.90;;;;;;4999343;28;20215;-96
2021/06/24 04:26:46;;;;;;;11.38;5.10;;;16.10;99.90;;;;;;4999823;28;20199;-96
2021/06/24 04:29:12;;;;;;;9.38;5.00;;;16.10;99.90;;;;;;4999973;28;20179;-96
2021/06/24 04:31:37;;;;;;;10.15;4.88;;;16.10;99.90;;;;;;4998478;28;20277;-96
2021/06/24 04:34:05;;;;;;;8.70;5.15;;;16.10;99.90;;;;;;4999319;28;20183;-96
2021/06/24 04:36:31;;;;;;;9.90;4.90;;;16.10;99.90;;;;;;4999965;28;20202;-96
2021/06/24 04:38:59;;;;;;;6.70;4.65;;;16.10;99.90;;;;;;5002903;28;20610;-96
2021/06/24 04:41:25;;;;;;;6.38;4.65;;;16.20;99.90;;;;;;5001718;28;20217;-96
2021/06/24 04:43:51;;;;;;;10.40;5.40;;;16.20;99.90;;;;;;5005753;28;20222;-96
2021/06/24 04:46:16;;;;;;;7.35;4.93;;;16.20;99.90;;;;;;5001570;28;20171;-96
2021/06/24 04:48:48;;;;;;;8.32;5.13;;;16.20;99.90;;;;;;5003052;28;20187;-96
2021/06/24 04:51:14;;;;;;;11.43;5.20;;;16.20;99.90;;;;;;5000841;28;20183;-96
2021/06/24 04:53:40;;;;;;;6.95;4.75;;;16.20;99.90;;;;;;5000003;28;20183;-96
2021/06/24 04:56:06;;;;;;;7.75;5.18;;;16.20;99.90;;;;;;5000895;28;20175;-96
2021/06/24 04:58:32;;;;;;;10.27;5.38;;;16.30;99.90;;;;;;5002127;28;20190;-96
2021/06/24 05:00:58;;;;;;;10.30;5.28;;;16.30;99.90;;;;;;5002529;28;20692;-96
2021/06/24 05:03:27;;;;;;;9.75;5.30;;;16.30;99.90;;;;;;5000598;28;20217;-96
2021/06/24 05:05:53;;;;;;;10.88;5.43;;;16.30;99.90;;;;;;4998210;28;20170;-96
2021/06/24 05:08:22;;;;;;;9.90;5.32;;;16.30;99.90;;;;;;5014688;28;20567;-96
2021/06/24 05:10:48;;;;;;;9.38;4.60;;;16.40;99.90;;;;;;4998189;28;20179;-96
2021/06/24 05:13:14;;;;;;;12.05;5.38;;;16.40;99.90;;;;;;4997989;28;20599;-96
2021/06/24 05:15:45;;;;;;;10.77;5.28;;;16.40;99.90;;;;;;4999222;28;20203;-96
2021/06/24 05:18:12;;;;;;;10.15;5.18;;;16.50;99.90;;;;;;4999095;28;20269;-96
2021/06/24 05:20:41;;;;;;;11.77;5.35;;;16.50;99.90;;;;;;5003962;28;20183;-96
2021/06/24 05:23:07;;;;;;;9.95;5.28;;;16.50;99.90;;;;;;5002620;28;20594;-96
2021/06/24 05:25:33;;;;;;;10.63;5.57;;;16.50;99.90;;;;;;5002751;28;20186;-95
2021/06/24 05:27:59;;;;;;;8.77;5.05;;;16.50;99.90;;;;;;5003250;28;20179;-96
2021/06/24 05:30:26;;;;;;;8.20;5.03;;;16.50;99.90;;;;;;5018697;28;20190;-96
2021/06/24 05:32:52;;;;;;;8.63;4.78;;;16.50;99.90;;;;;;5000923;28;20183;-96
2021/06/24 05:35:20;;;;;;;11.32;5.20;;;16.60;99.90;;;;;;5001839;28;20222;-96
2021/06/24 05:37:46;;;;;;;8.35;5.03;;;16.50;99.90;;;;;;5002060;28;20180;-96
2021/06/24 05:40:12;;;;;;;11.50;5.20;;;16.60;99.90;;;;;;5002990;28;20190;-96
2021/06/24 05:42:37;;;;;;;15.40;6.18;;;16.50;99.90;;;;;;5002626;28;20206;-96
2021/06/24 05:45:05;;;;;;;11.95;4.93;;;16.60;99.90;;;;;;5002319;28;20282;-96
2021/06/24 05:47:30;;;;;;;11.73;5.95;;;16.60;99.90;;;;;;5002172;28;20175;-96
2021/06/24 05:49:57;;;;;;;9.30;5.45;;;16.60;99.90;;;;;;5002853;28;20186;-96
2021/06/24 05:52:23;;;;;;;11.98;5.72;;;16.70;99.90;;;;;;5001730;28;20610;-96
2021/06/24 05:54:48;;;;;;;10.45;5.30;;;16.60;99.90;;;;;;5002244;28;20182;-95
2021/06/24 05:57:14;;;;;;;10.90;5.82;;;16.70;99.90;;;;;;5002903;28;20211;-96
2021/06/24 05:59:40;;;;;;;8.85;5.25;;;16.70;99.90;;;;;;5004410;28;20633;-96
2021/06/24 06:02:06;;;;;;;10.48;5.25;;;16.70;99.90;;;;;;5002200;28;20203;-96
2021/06/24 06:04:32;;;;;;;10.48;6.13;;;16.70;99.90;;;;;;5003223;28;20215;-96
2021/06/24 06:07:00;;;;;;;9.27;5.10;;;16.70;99.90;;;;;;5003624;28;20182;-96
2021/06/24 06:09:26;;;;;;;9.45;4.68;;;16.70;99.90;;;;;;5004988;28;20179;-96
2021/06/24 06:11:53;;;;;;;9.88;5.45;;;16.70;99.90;;;;;;5004334;28;20648;-96
2021/06/24 06:14:19;;;;;;;6.47;5.40;;;16.80;99.90;;;;;;5004924;28;20294;-96
2021/06/24 06:16:45;;;;;;;8.18;5.20;;;16.80;99.90;;;;;;5002849;28;20218;-96
2021/06/24 06:19:11;;;;;;;10.73;5.68;;;16.80;99.90;;;;;;5003430;28;20311;-96
2021/06/24 06:21:37;;;;;;;9.40;5.07;;;16.90;99.90;;;;;;5004745;28;20182;-96
2021/06/24 06:24:03;;;;;;;13.23;5.45;;;16.80;99.90;;;;;;5002471;28;20217;-96
2021/06/24 06:26:29;;;;;;;9.50;5.65;;;16.80;99.90;;;;;;5002956;28;20179;-95
2021/06/24 06:29:02;;;;;;;11.05;5.32;;;16.80;99.90;;;;;;5003513;28;20222;-96
2021/06/24 06:31:28;;;;;;;9.73;5.30;;;16.80;99.90;;;;;;5000006;28;20176;-96
2021/06/24 06:33:54;;;;;;;8.75;4.43;;;16.80;99.90;;;;;;5001464;28;20182;-96
2021/06/24 06:36:19;;;;;;;7.65;5.28;;;16.90;99.90;;;;;;5002685;28;20179;-96
2021/06/24 06:38:51;;;;;;;8.32;5.25;;;16.90;99.90;;;;;;5007836;28;20190;-96
2021/06/24 06:41:17;;;;;;;10.80;5.38;;;16.90;99.90;;;;;;4994026;28;20214;-96
2021/06/24 06:43:42;;;;;;;8.90;5.47;;;16.90;99.90;;;;;;5000776;28;20211;-96
2021/06/24 06:46:08;;;;;;;6.97;4.63;;;17.00;99.90;;;;;;5007172;28;20171;-96
2021/06/24 06:48:40;;;;;;;8.68;5.15;;;17.00;99.90;;;;;;5011150;28;20186;-96
2021/06/24 06:51:08;;;;;;;10.18;6.00;;;17.00;99.90;;;;;;5005207;28;20190;-96
2021/06/24 06:53:34;;;;;;;10.05;5.60;;;17.00;99.90;;;;;;5004913;28;20245;-96
2021/06/24 06:56:06;;;;;;;9.55;5.00;;;17.00;99.90;;;;;;5007341;28;20175;-96
2021/06/24 06:58:32;;;;;;;7.35;4.68;;;17.00;99.90;;;;;;5007459;28;20175;-96
2021/06/24 07:00:58;;;;;;;10.63;5.45;;;17.10;99.90;;;;;;5005623;28;20212;-96
2021/06/24 07:03:24;;;;;;;8.02;5.15;;;17.10;99.90;;;;;;5011572;28;20222;-96
2021/06/24 07:05:52;;;;;;;9.88;4.85;;;17.20;99.90;;;;;;5009009;28;20184;-96
2021/06/24 07:08:19;;;;;;;11.18;5.07;;;17.20;99.90;;;;;;5025858;28;20276;-96
2021/06/24 07:10:56;;;;;;;7.10;5.07;;;17.30;99.90;;;;;;5013071;28;20175;-96
2021/06/24 07:13:23;;;;;;;10.80;4.88;;;17.30;99.90;;;;;;5014031;28;20229;-96
2021/06/24 07:16:04;;;;;;;11.75;5.72;;;17.30;99.90;;;;;;5020998;28;20187;-96
2021/06/24 07:18:33;;;;;;;7.75;4.95;;;17.20;99.90;;;;;;4997204;28;20226;-96
2021/06/24 07:21:02;;;;;;;10.52;5.47;;;17.30;99.90;;;;;;4993045;28;20259;-96
2021/06/24 07:23:28;;;;;;;8.70;5.00;;;17.30;99.90;;;;;;5009732;28;20211;-96
2021/06/24 07:25:55;;;;;;;10.60;4.55;;;17.30;99.90;;;;;;5015310;28;20187;-96
2021/06/24 07:28:30;;;;;;;12.48;5.20;;;17.30;99.90;;;;;;4995427;28;21325;-96
2021/06/24 07:31:01;;;;;;;10.10;5.25;;;17.40;99.90;;;;;;5000814;28;20170;-96
2021/06/24 07:33:28;;;;;;;8.80;4.80;;;17.30;99.90;;;;;;5012402;28;20171;-96
2021/06/24 07:35:54;;;;;;;10.50;4.72;;;17.40;99.90;;;;;;4994603;28;20179;-96
2021/06/24 07:38:21;;;;;;;12.82;5.40;;;17.30;99.90;;;;;;4999189;28;20175;-96
2021/06/24 07:41:22;;;;;;;10.30;5.80;;;17.40;99.90;;;;;;5008531;28;20192;-96
2021/06/24 07:43:52;;;;;;;8.77;4.90;;;17.40;99.90;;;;;;4986986;28;20204;-96
2021/06/24 07:46:24;;;;;;;9.43;5.38;;;17.40;99.90;;;;;;4995251;28;20606;-96
2021/06/24 07:49:26;;;;;;;8.65;5.05;;;17.40;99.90;;;;;;5002567;28;20218;-96
2021/06/24 07:52:06;;;;;;;6.63;4.88;;;17.50;99.90;;;;;;4937019;28;20194;-96
2021/06/24 07:54:34;;;;;;;11.50;5.30;;;17.50;99.90;;;;;;4999698;28;20484;-96
2021/06/24 07:57:15;;;;;;;8.57;4.95;;;17.60;99.90;;;;;;5008050;28;20189;-96
2021/06/24 08:00:11;;;;;;;9.13;5.75;;;17.70;99.90;;;;;;4999497;28;20167;-96
2021/06/24 08:02:38;;;;;;;9.20;4.85;;;17.70;99.90;;;;;;5016959;23;20210;-91
2021/06/24 08:05:05;;;;;;;8.45;4.75;;;17.70;99.90;;;;;;4959010;28;20211;-89
2021/06/24 08:07:31;;;;;;;11.68;5.45;;;17.70;99.90;;;;;;4917481;28;20226;-88
2021/06/24 08:10:02;;;;;;;8.82;5.15;;;17.80;99.90;;;;;;4903739;28;20289;-88
2021/06/24 08:12:28;;;;;;;8.23;4.85;;;17.80;99.90;;;;;;4925679;28;20827;-88
2021/06/24 08:14:54;;;;;;;9.23;4.68;;;17.80;99.90;;;;;;4924775;29;20190;-89
2021/06/24 08:17:20;;;;;;;8.75;5.03;;;17.90;99.90;;;;;;4910158;29;20588;-88
2021/06/24 08:19:48;;;;;;;9.50;5.15;;;18.00;99.90;;;;;;4895389;29;20285;-88
2021/06/24 08:22:15;;;;;;;8.10;5.25;;;18.00;99.90;;;;;;4903848;28;20294;-88
2021/06/24 08:24:43;;;;;;;9.07;5.18;;;18.00;99.90;;;;;;4934275;29;20257;-88
2021/06/24 08:27:08;;;;;;;7.50;4.68;;;18.00;99.90;;;;;;4924725;29;20225;-88
2021/06/24 08:29:34;;;;;;;10.82;5.40;;;18.10;99.90;;;;;;4933007;29;20248;-89
2021/06/24 08:32:01;;;;;;;8.93;5.38;;;18.10;99.90;;;;;;4932701;29;20213;-89
2021/06/24 08:34:28;;;;;;;8.95;5.60;;;18.20;99.90;;;;;;4920306;29;20241;-89
2021/06/24 08:36:54;;;;;;;9.13;5.30;;;18.20;99.90;;;;;;4922745;29;20552;-88
2021/06/24 08:39:20;;;;;;;11.77;5.95;;;18.20;99.90;;;;;;4892135;29;20227;-88
2021/06/24 08:41:48;;;;;;;11.32;5.70;;;18.20;99.90;;;;;;4908844;29;20205;-89
2021/06/24 08:44:14;;;;;;;9.18;5.72;;;18.20;99.90;;;;;;4909786;29;20269;-88
2021/06/24 08:46:41;;;;;;;11.05;5.70;;;18.30;99.90;;;;;;4909137;29;20198;-88
2021/06/24 08:49:08;;;;;;;12.52;5.40;;;18.30;99.90;;;;;;4913071;29;20234;-89
2021/06/24 08:51:34;;;;;;;8.60;5.43;;;18.30;99.90;;;;;;4916536;29;20210;-88
2021/06/24 08:54:00;;;;;;;8.15;5.45;;;18.30;99.90;;;;;;4905202;29;20238;-89
2021/06/24 08:56:27;;;;;;;10.00;5.47;;;18.30;99.90;;;;;;4907880;29;20239;-89
2021/06/24 08:58:53;;;;;;;10.90;5.85;;;18.30;99.90;;;;;;4904628;29;20730;-89
2021/06/24 09:01:20;;;;;;;9.02;6.05;;;18.40;99.90;;;;;;4915969;29;20198;-88
2021/06/24 09:03:52;;;;;;;7.65;5.10;;;18.40;99.90;;;;;;4903285;29;20747;-90
2021/06/24 09:06:21;;;;;;;7.80;4.82;;;18.50;99.90;;;;;;4905697;29;20725;-92
2021/06/24 09:08:54;;;;;;;8.55;4.72;;;18.40;99.90;;;;;;4916601;29;20313;-90
2021/06/24 09:11:24;;;;;;;9.32;4.97;;;18.50;99.90;;;;;;4900329;29;20230;-90
2021/06/24 09:14:09;;;;;;;8.68;5.00;;;18.60;99.90;;;;;;4908398;29;20233;-89
2021/06/24 09:16:41;;;;;;;11.85;5.60;;;18.60;99.90;;;;;;4910861;29;20194;-89
2021/06/24 09:19:18;;;;;;;11.13;5.65;;;18.60;99.90;;;;;;4930263;28;20307;-90
2021/06/24 09:21:58;;;;;;;10.10;5.50;;;18.70;99.90;;;;;;4931597;29;20209;-88
2021/06/24 09:24:40;;;;;;;11.82;6.22;;;18.60;99.90;;;;;;4927804;29;20233;-88
2021/06/24 09:27:29;;;;;;;9.25;5.40;;;18.70;99.90;;;;;;4913730;29;20190;-89
2021/06/24 09:30:15;;;;;;;10.90;5.55;;;18.70;99.90;;;;;;4921598;28;20621;-90
2021/06/24 09:32:45;;;;;;;8.35;5.53;;;18.70;99.90;;;;;;4911099;29;20209;-90
2021/06/24 09:35:22;;;;;;;11.63;5.25;;;18.70;99.90;;;;;;4891285;29;20316;-89
2021/06/24 09:38:10;;;;;;;11.25;5.35;;;18.70;99.90;;;;;;4930088;29;20193;-88
2021/06/24 09:40:56;;;;;;;8.85;4.97;;;18.80;99.90;;;;;;4913144;29;20229;-90
2021/06/24 09:43:27;;;;;;;9.50;5.00;;;18.80;99.90;;;;;;4901638;29;20270;-90
2021/06/24 09:46:20;;;;;;;7.70;4.85;;;18.90;99.90;;;;;;4913145;29;20202;-90
2021/06/24 09:49:01;;;;;;;9.35;5.07;;;19.00;99.90;;;;;;4921786;29;20273;-89
2021/06/24 09:51:33;;;;;;;7.72;5.30;;;19.00;99.90;;;;;;4932602;29;20282;-90
2021/06/24 09:54:09;;;;;;;8.00;4.95;;;19.00;99.90;;;;;;4925552;28;20228;-90
2021/06/24 09:56:44;;;;;;;8.98;5.28;;;19.10;99.90;;;;;;4940499;29;20284;-90
2021/06/24 09:59:12;;;;;;;8.30;5.03;;;19.10;99.90;;;;;;4929101;28;20260;-90
2021/06/24 10:01:53;;;;;;;8.23;4.97;;;19.20;99.90;;;;;;4946481;28;20210;-89
2021/06/24 10:04:31;;;;;;;7.30;4.43;;;19.20;99.90;;;;;;4928202;29;20434;-89
2021/06/24 10:07:03;;;;;;;9.57;5.32;;;19.30;99.90;;;;;;4932903;29;20209;-89
2021/06/24 10:09:30;;;;;;;7.20;4.45;;;19.30;99.90;;;;;;4915735;29;20396;-89
2021/06/24 10:11:56;;;;;;;6.30;3.90;;;19.40;99.90;;;;;;4932000;29;20702;-89
2021/06/24 10:14:22;;;;;;;9.75;4.65;;;19.40;99.90;;;;;;4923763;29;20724;-89
2021/06/24 10:16:53;;;;;;;8.32;4.85;;;19.40;99.90;;;;;;4936034;29;20198;-89
2021/06/24 10:19:28;;;;;;;9.02;5.25;;;19.50;99.90;;;;;;4923775;29;20240;-90
2021/06/24 10:22:03;;;;;;;9.65;4.78;;;19.40;99.90;;;;;;4930964;29;20964;-91
2021/06/24 10:24:47;;;;;;;7.22;4.10;;;19.50;99.90;;;;;;4928859;29;20601;-89
2021/06/24 10:27:13;;;;;;;8.57;4.10;;;19.50;99.90;;;;;;4939550;29;20194;-90
2021/06/24 10:29:50;;;;;;;8.95;5.00;;;19.60;99.90;;;;;;4933972;29;20701;-90
2021/06/24 10:32:27;;;;;;;8.95;4.05;;;19.60;99.90;;;;;;4945357;29;20209;-88
2021/06/24 10:34:55;;;;;;;7.97;4.75;;;19.60;99.90;;;;;;4919532;29;20751;-89
2021/06/24 10:37:23;;;;;;;8.90;4.75;;;19.60;99.90;;;;;;4916547;29;20183;-89
2021/06/24 10:39:55;;;;;;;5.90;4.30;;;19.60;99.90;;;;;;4914476;29;20669;-90
2021/06/24 10:42:23;;;;;;;7.47;4.70;;;19.60;99.90;;;;;;4913509;29;20206;-88
2021/06/24 10:44:54;;;;;;;8.32;4.03;;;19.60;99.90;;;;;;4906864;29;20233;-91
2021/06/24 10:47:29;;;;;;;10.10;3.97;;;19.60;99.90;;;;;;4929638;29;20197;-90
2021/06/24 10:50:15;;;;;;;8.88;3.97;;;19.60;99.90;;;;;;4923626;29;20232;-89
2021/06/24 10:52:41;;;;;;;7.47;4.60;;;19.70;99.90;;;;;;4932810;29;20205;-90
2021/06/24 10:55:33;;;;;;;10.18;4.10;;;19.70;99.90;;;;;;4931259;29;20233;-89
2021/06/24 10:58:01;;;;;;;9.65;4.28;;;19.70;99.90;;;;;;4917844;29;20190;-89
2021/06/24 11:00:31;;;;;;;10.35;4.57;;;19.70;99.90;;;;;;4941309;29;20228;-90
2021/06/24 11:02:59;;;;;;;5.22;3.67;;;19.80;99.90;;;;;;4933301;29;20436;-88
2021/06/24 11:05:42;;;;;;;6.03;4.43;;;19.80;99.90;;;;;;4934365;28;20230;-88
2021/06/24 11:08:19;;;;;;;8.07;3.85;;;19.90;99.90;;;;;;4918126;29;20270;-88
2021/06/24 11:10:58;;;;;;;10.50;4.72;;;19.90;99.90;;;;;;4918226;29;20638;-88
2021/06/24 11:13:39;;;;;;;6.40;3.90;;;20.00;99.90;;;;;;4933696;29;20281;-88
2021/06/24 11:16:15;;;;;;;6.28;3.72;;;20.00;99.90;;;;;;4933782;29;20201;-88
2021/06/24 11:18:41;;;;;;;7.25;3.17;;;20.00;99.90;;;;;;4943421;29;20182;-88
2021/06/24 11:21:31;;;;;;;8.25;4.30;;;20.10;99.90;;;;;;4936037;29;20187;-88
2021/06/24 11:24:20;;;;;;;6.80;4.10;;;20.10;99.90;;;;;;4913672;29;20219;-88
2021/06/24 11:26:53;;;;;;;7.07;3.97;;;20.20;99.90;;;;;;4923286;29;20509;-91
2021/06/24 11:29:39;;;;;;;7.47;3.78;;;20.20;99.90;;;;;;4917997;29;20181;-89
2021/06/24 11:32:19;;;;;;;7.18;3.50;;;20.20;99.90;;;;;;4917654;29;20195;-89
2021/06/24 11:34:53;;;;;;;6.72;3.28;;;20.20;99.90;;;;;;4917873;29;20205;-88
2021/06/24 11:37:37;;;;;;;7.32;3.40;;;20.30;99.90;;;;;;4917611;29;20187;-88
2021/06/24 11:40:09;;;;;;;4.93;3.33;;;20.30;99.90;;;;;;4917719;29;20265;-89
2021/06/24 11:42:46;;;;;;;4.63;3.00;;;20.30;99.90;;;;;;4920059;29;20211;-88
2021/06/24 11:45:17;;;;;;;5.38;3.10;;;20.30;99.90;;;;;;4933254;29;20171;-89
2021/06/24 11:47:46;;;;;;;7.63;3.35;;;20.40;99.90;;;;;;4933362;29;20537;-88
2021/06/24 12:04:19;;;;;;;9.57;3.63;;;20.60;99.90;;;;;;4934150;29;20225;-88
2021/06/24 12:06:49;;;;;;;4.75;2.80;;;20.50;99.90;;;;;;4952289;29;20180;-88
2021/06/24 12:09:23;;;;;;;7.07;3.10;;;20.60;99.90;;;;;;4946924;29;20174;-88
2021/06/24 12:11:53;;;;;;;6.20;3.10;;;20.70;99.90;;;;;;4936618;29;20221;-88
2021/06/24 12:14:21;;;;;;;4.57;3.00;;;20.70;99.90;;;;;;4919853;29;20174;-88
2021/06/24 12:17:09;;;;;;;7.30;3.42;;;20.70;99.90;;;;;;4920151;29;20328;-88
2021/06/24 12:19:42;;;;;;;7.40;3.03;;;20.60;99.90;;;;;;4947728;29;20171;-88
2021/06/24 12:22:07;;;;;;;4.85;3.00;;;20.70;99.90;;;;;;4952089;28;20209;-88
2021/06/24 12:24:35;;;;;;;3.88;2.60;;;20.80;99.90;;;;;;4954739;29;20204;-88
2021/06/24 12:27:27;;;;;;;4.47;2.60;;;20.70;99.90;;;;;;4939084;29;20523;-87
2021/06/24 12:29:56;;;;;;;6.30;2.85;;;20.70;99.90;;;;;;4934687;29;20226;-88
2021/06/24 12:32:23;;;;;;;4.95;2.85;;;20.80;99.90;;;;;;4922073;29;20193;-88
2021/06/24 12:34:50;;;;;;;4.80;2.22;;;20.70;99.90;;;;;;4930910;29;20174;-88
2021/06/24 12:37:41;;;;;;;3.78;2.25;;;20.70;99.90;;;;;;4954766;29;20273;-89
2021/06/24 12:40:11;;;;;;;6.20;2.72;;;20.70;99.90;;;;;;4916648;29;20167;-88
2021/06/24 12:42:57;;;;;;;3.40;2.72;;;20.80;99.90;;;;;;4916558;29;20682;-88
2021/06/24 12:45:32;;;;;;;6.25;2.83;;;20.90;99.90;;;;;;4942607;29;20174;-88
2021/06/24 12:47:58;;;;;;;4.72;2.53;;;21.00;99.90;;;;;;4919084;29;20221;-87
2021/06/24 12:50:33;;;;;;;4.68;2.67;;;20.90;99.90;;;;;;4934990;29;20185;-87
2021/06/24 12:53:10;;;;;;;3.55;2.40;;;20.90;99.90;;;;;;4926332;29;20232;-87
2021/06/24 12:55:40;;;;;;;8.15;2.88;;;20.90;99.90;;;;;;4953716;29;20223;-88
2021/06/24 12:58:39;;;;;;;6.47;3.08;;;20.90;99.90;;;;;;4954022;29;20232;-86
2021/06/24 13:01:13;;;;;;;7.25;2.70;;;20.90;99.90;;;;;;4885410;29;20221;-87
2021/06/24 13:03:41;;;;;;;4.07;2.70;;;20.90;99.90;;;;;;4915701;29;20230;-88
2021/06/24 13:06:18;;;;;;;5.72;2.55;;;20.80;99.90;;;;;;4941374;29;20189;-88
2021/06/24 13:09:16;;;;;;;5.60;2.72;;;20.80;99.90;;;;;;4942009;29;20590;-87
2021/06/24 13:11:49;;;;;;;5.78;3.05;;;20.90;99.90;;;;;;4946366;28;20209;-87
2021/06/24 13:14:23;;;;;;;4.95;2.42;;;20.80;99.90;;;;;;4939947;29;20752;-87
2021/06/24 13:16:50;;;;;;;5.53;2.85;;;20.80;99.90;;;;;;4926492;29;20181;-87